Time;durP1;ratioP1;P1;durP2;ratioP2;P2;SDS_P1;SDS_P2;PMS_P1;PMS_P2;Temp;Humidity;BMP_temperature;BMP_pressure;BME280_temperature;BME280_humidity;BME280_pressure;Samples;Min_cycle;Max_cycle;Signal;HPM_P1;HPM_P2
2023/03/11 00:01:18;;;;;;;3.60;3.30;;;9.20;99.90;;;;;;5057767;28;22047;-70
2023/03/11 00:03:48;;;;;;;4.53;3.35;;;9.10;99.90;;;;;;5057489;28;20217;-70
2023/03/11 00:06:15;;;;;;;3.03;2.83;;;9.10;99.90;;;;;;5053821;28;20297;-70
2023/03/11 00:08:42;;;;;;;3.50;3.20;;;9.10;99.90;;;;;;5054712;28;20302;-70
2023/03/11 00:11:09;;;;;;;3.50;3.20;;;9.10;99.90;;;;;;5058672;28;20310;-70
2023/03/11 00:13:36;;;;;;;3.10;2.90;;;9.00;99.90;;;;;;5058176;28;20286;-71
2023/03/11 00:16:04;;;;;;;3.33;3.10;;;9.00;99.90;;;;;;5056376;28;20199;-70
2023/03/11 00:18:31;;;;;;;2.58;2.40;;;9.00;99.90;;;;;;5054709;28;20225;-70
2023/03/11 00:21:01;;;;;;;2.90;2.70;;;9.00;99.90;;;;;;5054573;28;20226;-71
2023/03/11 00:23:28;;;;;;;3.60;3.30;;;9.00;99.90;;;;;;5054376;28;20203;-70
2023/03/11 00:25:55;;;;;;;3.10;2.80;;;9.00;99.90;;;;;;5056227;28;20198;-71
2023/03/11 00:28:25;;;;;;;2.85;2.65;;;9.00;99.90;;;;;;5058296;28;20281;-70
2023/03/11 00:30:52;;;;;;;3.30;3.00;;;8.90;99.90;;;;;;5059813;28;20594;-69
2023/03/11 00:33:19;;;;;;;3.00;2.80;;;8.90;99.90;;;;;;5053171;28;20214;-71
2023/03/11 00:35:46;;;;;;;2.65;2.55;;;8.90;99.90;;;;;;5056451;28;20290;-70
2023/03/11 00:38:16;;;;;;;2.83;2.63;;;8.90;99.90;;;;;;5056211;28;20221;-70
2023/03/11 00:40:44;;;;;;;3.10;2.80;;;8.90;99.90;;;;;;5053564;28;20285;-71
2023/03/11 00:43:12;;;;;;;2.88;2.67;;;8.90;99.90;;;;;;5057222;28;20962;-70
2023/03/11 00:45:39;;;;;;;3.25;3.05;;;8.90;99.90;;;;;;5055970;28;20675;-70
2023/03/11 00:48:06;;;;;;;3.40;3.15;;;8.90;99.90;;;;;;5055534;28;20253;-70
2023/03/11 00:50:35;;;;;;;3.00;2.80;;;8.90;99.90;;;;;;5064468;28;20198;-69
2023/03/11 00:53:04;;;;;;;2.92;2.65;;;8.80;99.90;;;;;;5058538;28;20225;-69
2023/03/11 00:55:34;;;;;;;2.80;2.60;;;8.80;99.90;;;;;;5059455;28;20294;-70
2023/03/11 00:58:04;;;;;;;2.58;2.40;;;8.80;99.90;;;;;;5058169;28;20714;-70
2023/03/11 01:00:32;;;;;;;3.20;2.90;;;8.70;99.90;;;;;;5059459;28;20218;-71
2023/03/11 01:02:59;;;;;;;2.63;2.53;;;8.70;99.90;;;;;;5058505;28;20280;-70
2023/03/11 01:05:30;;;;;;;2.90;2.70;;;8.70;99.90;;;;;;5060144;28;20302;-71
2023/03/11 01:07:57;;;;;;;2.50;2.03;;;8.70;99.90;;;;;;5062489;28;20206;-71
2023/03/11 01:10:24;;;;;;;2.20;2.08;;;8.70;99.90;;;;;;5059412;28;20229;-70
2023/03/11 01:12:53;;;;;;;2.30;2.20;;;8.60;99.90;;;;;;5058836;28;20256;-68
2023/03/11 01:15:22;;;;;;;2.28;2.17;;;8.60;99.90;;;;;;5060631;28;20262;-70
2023/03/11 01:17:50;;;;;;;2.67;2.47;;;8.60;99.90;;;;;;5062087;28;20326;-71
2023/03/11 01:20:17;;;;;;;2.75;2.55;;;8.60;99.90;;;;;;5061925;28;20256;-70
2023/03/11 01:22:44;;;;;;;2.63;2.42;;;8.60;99.90;;;;;;5058741;28;20847;-70
2023/03/11 01:25:13;;;;;;;2.08;1.98;;;8.50;99.90;;;;;;5058020;28;20202;-70
2023/03/11 01:27:40;;;;;;;2.78;2.58;;;8.50;99.90;;;;;;5062353;28;20338;-70
2023/03/11 01:30:14;;;;;;;2.17;2.08;;;8.50;99.90;;;;;;5057722;28;20239;-70
2023/03/11 01:32:40;;;;;;;2.60;2.40;;;8.40;99.90;;;;;;5060411;28;20254;-70
2023/03/11 01:35:10;;;;;;;2.80;2.60;;;8.30;99.90;;;;;;5058564;28;20284;-70
2023/03/11 01:37:37;;;;;;;2.50;2.40;;;8.40;99.90;;;;;;5058711;28;20207;-69
2023/03/11 01:40:05;;;;;;;2.45;2.35;;;8.30;99.90;;;;;;5057562;28;20264;-70
2023/03/11 01:42:32;;;;;;;2.38;2.22;;;8.30;99.90;;;;;;5056693;28;20576;-70
2023/03/11 01:44:59;;;;;;;2.75;2.55;;;8.30;99.90;;;;;;5058733;28;20199;-71
2023/03/11 01:47:49;;;;;;;2.35;2.25;;;8.20;99.90;;;;;;5063741;28;20233;-71
2023/03/11 01:50:16;;;;;;;2.63;2.47;;;8.20;99.90;;;;;;5058668;28;20199;-70
2023/03/11 01:52:45;;;;;;;2.17;2.08;;;8.20;99.90;;;;;;5056822;28;20253;-70
2023/03/11 01:55:13;;;;;;;2.90;2.70;;;8.10;99.90;;;;;;5060151;28;20289;-70
2023/03/11 01:57:43;;;;;;;2.33;2.17;;;8.10;99.90;;;;;;5057834;28;20250;-70
2023/03/11 02:00:14;;;;;;;2.65;2.55;;;8.00;99.90;;;;;;5058109;28;20233;-70
2023/03/11 02:02:43;;;;;;;2.67;2.50;;;8.00;99.90;;;;;;5060071;28;20751;-70
2023/03/11 02:05:11;;;;;;;2.65;2.50;;;8.00;99.90;;;;;;5058452;28;20222;-69
2023/03/11 02:07:39;;;;;;;2.50;2.30;;;8.00;99.90;;;;;;5057898;28;20194;-69
2023/03/11 02:10:08;;;;;;;2.75;2.55;;;8.00;99.90;;;;;;5059794;28;20200;-70
2023/03/11 02:12:37;;;;;;;3.05;2.72;;;8.00;99.90;;;;;;5057294;28;20309;-69
2023/03/11 02:15:06;;;;;;;2.55;2.35;;;8.00;99.90;;;;;;5059045;28;20285;-70
2023/03/11 02:17:34;;;;;;;2.42;2.20;;;8.00;99.90;;;;;;5059087;28;20768;-70
2023/03/11 02:20:27;;;;;;;2.58;2.38;;;8.00;99.90;;;;;;5057422;28;20313;-70
2023/03/11 02:22:56;;;;;;;2.30;2.20;;;7.90;99.90;;;;;;5058591;28;20272;-70
2023/03/11 02:25:31;;;;;;;2.95;2.65;;;7.90;99.90;;;;;;5056283;28;20910;-70
2023/03/11 02:28:01;;;;;;;2.67;2.40;;;7.90;99.90;;;;;;5057899;28;20284;-70
2023/03/11 02:30:29;;;;;;;2.78;2.58;;;7.80;99.90;;;;;;5058185;28;20322;-70
2023/03/11 02:32:57;;;;;;;2.58;2.47;;;7.80;99.90;;;;;;5060256;28;20409;-70
2023/03/11 02:35:24;;;;;;;2.60;2.40;;;7.70;99.90;;;;;;5061668;28;20235;-71
2023/03/11 02:37:53;;;;;;;2.40;2.30;;;7.60;99.90;;;;;;5054876;28;20828;-70
2023/03/11 02:40:48;;;;;;;2.17;2.08;;;7.60;99.90;;;;;;5059892;28;20289;-70
2023/03/11 02:43:19;;;;;;;2.40;2.20;;;7.60;99.90;;;;;;5058812;28;20217;-70
2023/03/11 02:45:48;;;;;;;2.05;1.95;;;7.60;99.90;;;;;;5057053;28;20232;-70
2023/03/11 02:48:16;;;;;;;2.53;2.42;;;7.60;99.90;;;;;;5057262;28;20214;-70
2023/03/11 02:50:45;;;;;;;2.20;2.10;;;7.60;99.90;;;;;;5056297;28;20717;-70
2023/03/11 02:53:13;;;;;;;2.60;2.40;;;7.60;99.90;;;;;;5055781;28;20321;-69
2023/03/11 02:55:40;;;;;;;2.55;2.35;;;7.60;99.90;;;;;;5057280;28;20290;-69
2023/03/11 02:58:07;;;;;;;2.30;2.10;;;7.60;99.90;;;;;;5058356;28;20297;-69
2023/03/11 03:00:35;;;;;;;2.05;1.95;;;7.60;99.90;;;;;;5061619;28;20222;-70
2023/03/11 03:03:02;;;;;;;2.33;2.22;;;7.60;99.90;;;;;;5059527;28;20707;-70
2023/03/11 03:05:29;;;;;;;2.75;2.28;;;7.60;99.90;;;;;;5057740;28;20216;-70
2023/03/11 03:07:56;;;;;;;2.00;1.90;;;7.60;99.90;;;;;;5056194;28;20285;-70
2023/03/11 03:10:23;;;;;;;2.20;2.10;;;7.70;99.90;;;;;;5054768;28;20341;-70
2023/03/11 03:12:51;;;;;;;2.10;2.00;;;7.70;99.90;;;;;;5057079;28;20329;-71
2023/03/11 03:15:18;;;;;;;1.77;1.67;;;7.60;99.90;;;;;;5060879;28;20260;-71
2023/03/11 03:17:46;;;;;;;2.33;2.15;;;7.60;99.90;;;;;;5067656;28;20242;-71
2023/03/11 03:20:14;;;;;;;2.10;2.00;;;7.70;99.90;;;;;;5058663;28;20317;-70
2023/03/11 03:22:42;;;;;;;1.95;1.85;;;7.70;99.90;;;;;;5057959;28;20309;-70
2023/03/11 03:25:10;;;;;;;2.25;2.15;;;7.70;99.90;;;;;;5058105;28;20302;-70
2023/03/11 03:27:37;;;;;;;2.05;1.95;;;7.70;99.90;;;;;;5053362;28;20289;-71
2023/03/11 03:30:06;;;;;;;1.92;1.83;;;7.70;99.90;;;;;;5057630;28;20285;-70
2023/03/11 03:32:33;;;;;;;2.03;1.92;;;7.70;99.90;;;;;;5060519;28;20316;-70
2023/03/11 03:35:02;;;;;;;1.58;1.50;;;7.70;99.90;;;;;;5057401;28;20650;-70
2023/03/11 03:37:32;;;;;;;1.83;1.73;;;7.70;99.90;;;;;;5060766;28;20260;-70
2023/03/11 03:39:59;;;;;;;2.35;2.15;;;7.70;99.90;;;;;;5073629;28;20624;-70
2023/03/11 03:42:28;;;;;;;2.20;2.10;;;7.70;99.90;;;;;;5059694;28;20332;-69
2023/03/11 03:44:55;;;;;;;2.92;2.70;;;7.60;99.90;;;;;;5053916;28;20210;-70
2023/03/11 03:47:22;;;;;;;2.17;2.08;;;7.60;99.90;;;;;;5056628;28;20268;-70
2023/03/11 03:49:49;;;;;;;2.00;1.90;;;7.50;99.90;;;;;;5054897;28;20226;-71
2023/03/11 03:52:18;;;;;;;2.20;2.08;;;7.50;99.90;;;;;;5054865;28;20261;-71
2023/03/11 03:54:45;;;;;;;2.30;2.20;;;7.50;99.90;;;;;;5056322;28;20233;-70
2023/03/11 03:57:12;;;;;;;2.00;1.90;;;7.50;99.90;;;;;;5058405;28;20293;-71
2023/03/11 03:59:39;;;;;;;2.60;2.50;;;7.50;99.90;;;;;;5051337;28;20218;-70
2023/03/11 04:02:06;;;;;;;2.00;1.90;;;7.60;99.90;;;;;;5054231;28;20313;-71
2023/03/11 04:04:33;;;;;;;2.03;1.92;;;7.60;99.90;;;;;;5051242;28;20329;-70
2023/03/11 04:07:01;;;;;;;2.10;2.00;;;7.50;99.90;;;;;;5053119;28;20339;-70
2023/03/11 04:09:29;;;;;;;2.00;1.90;;;7.50;99.90;;;;;;5055785;28;20283;-69
2023/03/11 04:11:56;;;;;;;2.03;1.92;;;7.60;99.90;;;;;;5053843;28;20222;-69
2023/03/11 04:14:24;;;;;;;2.70;2.50;;;7.70;99.90;;;;;;5052618;28;20850;-69
2023/03/11 04:16:51;;;;;;;2.13;2.03;;;7.70;99.90;;;;;;5054317;28;20289;-69
2023/03/11 04:19:18;;;;;;;2.22;2.13;;;7.80;99.90;;;;;;5056335;28;20301;-70
2023/03/11 04:21:46;;;;;;;1.83;1.73;;;7.70;99.90;;;;;;5056188;28;20301;-69
2023/03/11 04:24:13;;;;;;;2.53;2.42;;;7.70;99.90;;;;;;5050711;28;21811;-70
2023/03/11 04:26:41;;;;;;;2.00;1.90;;;7.70;99.90;;;;;;5054552;28;20289;-70
2023/03/11 04:29:08;;;;;;;1.88;1.77;;;7.60;99.90;;;;;;5054341;28;20206;-69
2023/03/11 04:31:35;;;;;;;2.10;2.00;;;7.60;99.90;;;;;;5052284;28;20329;-69
2023/03/11 04:34:02;;;;;;;2.25;2.10;;;7.60;99.90;;;;;;5055524;28;20277;-70
2023/03/11 04:36:29;;;;;;;2.38;2.10;;;7.70;99.90;;;;;;5055261;28;20202;-69
2023/03/11 04:38:57;;;;;;;2.10;1.90;;;7.70;99.90;;;;;;5054416;28;20851;-69
2023/03/11 04:41:24;;;;;;;2.00;1.90;;;7.80;99.90;;;;;;5055838;28;20261;-69
2023/03/11 04:43:52;;;;;;;2.13;1.83;;;7.80;99.90;;;;;;5056245;28;20285;-69
2023/03/11 04:46:20;;;;;;;2.42;2.17;;;7.80;99.90;;;;;;5052113;28;20233;-70
2023/03/11 04:48:47;;;;;;;2.13;2.03;;;7.90;99.90;;;;;;5058607;28;20225;-70
2023/03/11 04:51:14;;;;;;;2.30;2.10;;;7.90;99.90;;;;;;5055589;28;20269;-70
2023/03/11 04:53:41;;;;;;;2.00;1.90;;;7.90;99.90;;;;;;5055745;28;20799;-70
2023/03/11 04:56:08;;;;;;;2.15;2.05;;;8.00;99.90;;;;;;5054502;28;20245;-70
2023/03/11 04:58:35;;;;;;;1.88;1.77;;;8.00;99.90;;;;;;5054573;28;20218;-70
2023/03/11 05:01:04;;;;;;;1.80;1.70;;;7.90;99.90;;;;;;5056137;28;20202;-69
2023/03/11 05:03:31;;;;;;;2.22;2.13;;;7.80;99.90;;;;;;5056023;28;20290;-70
2023/03/11 05:05:59;;;;;;;2.10;2.00;;;7.80;99.90;;;;;;5057478;28;20298;-70
2023/03/11 05:08:26;;;;;;;1.98;1.88;;;7.80;99.90;;;;;;5058646;28;20202;-69
2023/03/11 05:10:53;;;;;;;2.08;1.98;;;7.70;99.90;;;;;;5060130;28;20293;-70
2023/03/11 05:13:21;;;;;;;2.03;1.92;;;7.70;99.90;;;;;;5052823;28;20288;-69
2023/03/11 05:15:48;;;;;;;1.63;1.52;;;7.70;99.90;;;;;;5059142;28;20291;-70
2023/03/11 05:18:16;;;;;;;1.80;1.70;;;7.70;99.90;;;;;;5055462;28;20281;-70
2023/03/11 05:20:44;;;;;;;1.92;1.83;;;7.70;99.90;;;;;;5059402;28;20731;-70
2023/03/11 05:23:11;;;;;;;2.70;1.83;;;7.70;99.90;;;;;;5058598;28;21061;-70
2023/03/11 05:25:38;;;;;;;2.08;1.98;;;7.80;99.90;;;;;;5058106;28;20289;-70
2023/03/11 05:28:05;;;;;;;1.58;1.48;;;7.80;99.90;;;;;;5058196;28;20263;-69
2023/03/11 05:30:32;;;;;;;2.00;1.90;;;7.90;99.90;;;;;;5055183;28;20279;-69
2023/03/11 05:32:59;;;;;;;2.17;2.08;;;7.90;99.90;;;;;;5057114;28;20313;-69
2023/03/11 05:35:28;;;;;;;2.10;2.00;;;7.90;99.90;;;;;;5059905;28;20230;-69
2023/03/11 05:37:55;;;;;;;1.50;1.50;;;7.90;99.90;;;;;;5061435;28;20233;-69
2023/03/11 05:40:22;;;;;;;2.13;2.03;;;7.90;99.90;;;;;;5061576;28;20217;-69
2023/03/11 05:42:50;;;;;;;1.92;1.83;;;7.80;99.90;;;;;;5062375;28;20246;-69
2023/03/11 05:45:17;;;;;;;2.33;2.22;;;7.80;99.90;;;;;;5059784;28;20217;-69
2023/03/11 05:47:44;;;;;;;2.20;2.10;;;7.70;99.90;;;;;;5058662;28;20297;-69
2023/03/11 05:50:12;;;;;;;1.92;1.83;;;7.70;99.90;;;;;;5062623;28;20195;-69
2023/03/11 05:52:40;;;;;;;2.10;2.00;;;7.70;99.90;;;;;;5061171;28;20245;-70
2023/03/11 05:55:11;;;;;;;2.10;2.00;;;7.60;99.90;;;;;;5059456;28;20282;-69
2023/03/11 05:57:38;;;;;;;2.15;2.05;;;7.60;99.90;;;;;;5064567;28;20275;-69
2023/03/11 06:00:10;;;;;;;1.95;1.85;;;7.60;99.90;;;;;;5062315;28;20310;-69
2023/03/11 06:02:38;;;;;;;1.88;1.77;;;7.60;99.90;;;;;;5057448;28;20218;-69
2023/03/11 06:05:06;;;;;;;1.83;1.73;;;7.60;99.90;;;;;;5058516;28;20303;-69
2023/03/11 06:07:34;;;;;;;1.95;1.85;;;7.60;99.90;;;;;;5061276;28;20248;-69
2023/03/11 06:10:03;;;;;;;1.92;1.83;;;7.70;99.90;;;;;;5059188;28;20282;-69
2023/03/11 06:12:30;;;;;;;1.80;1.70;;;7.70;99.90;;;;;;5059073;28;20714;-69
2023/03/11 06:14:57;;;;;;;2.00;1.90;;;7.70;99.90;;;;;;5057821;28;20716;-69
2023/03/11 06:17:24;;;;;;;2.10;2.00;;;7.70;99.90;;;;;;5060548;28;20235;-69
2023/03/11 06:19:51;;;;;;;2.10;2.00;;;7.70;99.90;;;;;;5053804;28;20309;-69
2023/03/11 06:22:18;;;;;;;2.17;2.08;;;7.70;99.90;;;;;;5064777;28;20309;-68
2023/03/11 06:24:45;;;;;;;2.30;2.20;;;7.70;99.90;;;;;;5063836;28;20210;-68
2023/03/11 06:27:14;;;;;;;2.25;2.15;;;7.70;99.90;;;;;;5061247;28;20203;-68
2023/03/11 06:29:41;;;;;;;2.30;2.20;;;7.70;99.90;;;;;;5058816;28;20249;-68
2023/03/11 06:32:08;;;;;;;2.25;2.15;;;7.80;99.90;;;;;;5058827;28;20358;-68
2023/03/11 06:34:36;;;;;;;2.03;1.92;;;7.80;99.90;;;;;;5062155;28;20203;-69
2023/03/11 06:37:03;;;;;;;2.17;1.92;;;7.90;99.90;;;;;;5063520;28;20244;-69
2023/03/11 06:39:30;;;;;;;2.10;2.00;;;8.50;99.90;;;;;;5061916;28;20309;-68
2023/03/11 06:41:57;;;;;;;2.20;2.05;;;9.50;99.90;;;;;;5062140;28;20305;-69
2023/03/11 06:44:25;;;;;;;1.92;1.83;;;10.40;99.90;;;;;;5061382;28;20267;-69
2023/03/11 06:46:52;;;;;;;1.30;1.30;;;11.20;99.90;;;;;;5064860;28;20736;-68
2023/03/11 06:49:19;;;;;;;1.95;1.80;;;11.90;99.90;;;;;;5061428;28;20248;-67
2023/03/11 06:51:46;;;;;;;2.00;1.90;;;12.60;99.90;;;;;;5060217;28;20271;-67
2023/03/11 06:54:13;;;;;;;2.03;1.92;;;13.00;99.90;;;;;;5058378;28;20296;-69
2023/03/11 06:56:41;;;;;;;1.67;1.58;;;13.40;99.90;;;;;;5060569;28;20260;-69
2023/03/11 06:59:08;;;;;;;2.30;2.10;;;13.60;99.90;;;;;;5062381;28;20955;-69
2023/03/11 07:01:36;;;;;;;2.50;1.73;;;13.90;99.90;;;;;;5059328;28;20309;-69
2023/03/11 07:04:03;;;;;;;1.95;1.85;;;14.30;99.90;;;;;;5058836;28;20290;-69
2023/03/11 07:06:30;;;;;;;1.85;1.75;;;14.70;99.90;;;;;;5058512;28;23108;-69
2023/03/11 07:08:57;;;;;;;1.77;1.67;;;14.90;99.90;;;;;;5061274;28;20195;-70
2023/03/11 07:11:26;;;;;;;1.80;1.70;;;15.30;99.90;;;;;;5061525;28;20313;-69
2023/03/11 07:13:54;;;;;;;2.00;1.90;;;15.50;99.90;;;;;;5064785;28;20226;-69
2023/03/11 07:16:23;;;;;;;1.50;1.40;;;15.70;99.90;;;;;;5057217;28;20230;-69
2023/03/11 07:18:52;;;;;;;1.80;1.70;;;15.80;99.90;;;;;;5058895;28;20234;-69
2023/03/11 07:21:21;;;;;;;2.13;2.03;;;15.90;99.90;;;;;;5055566;28;20325;-70
2023/03/11 07:23:51;;;;;;;2.47;1.58;;;16.10;99.90;;;;;;5069150;28;20202;-69
2023/03/11 07:26:18;;;;;;;2.00;1.85;;;16.30;99.90;;;;;;5067843;28;20304;-69
2023/03/11 07:28:46;;;;;;;2.00;1.88;;;16.20;99.90;;;;;;5065619;28;20282;-69
2023/03/11 07:31:16;;;;;;;1.65;1.55;;;16.30;99.90;;;;;;5062241;28;20758;-70
2023/03/11 07:33:43;;;;;;;1.65;1.55;;;16.50;99.90;;;;;;5055590;28;20293;-69
2023/03/11 07:36:14;;;;;;;1.88;1.77;;;16.50;99.90;;;;;;5058494;28;20252;-69
2023/03/11 07:38:41;;;;;;;1.25;1.25;;;16.40;99.90;;;;;;5061939;28;20238;-69
2023/03/11 07:41:10;;;;;;;1.50;1.40;;;16.30;99.90;;;;;;5061510;28;20313;-69
2023/03/11 07:43:37;;;;;;;1.50;1.40;;;16.50;99.90;;;;;;5059967;28;20281;-69
2023/03/11 07:46:06;;;;;;;1.40;1.30;;;16.90;99.90;;;;;;5061554;28;20291;-68
2023/03/11 07:48:34;;;;;;;2.30;1.23;;;17.30;99.90;;;;;;5060357;28;20222;-69
2023/03/11 07:51:05;;;;;;;1.48;1.42;;;17.60;99.90;;;;;;5058661;28;20298;-69
2023/03/11 07:53:34;;;;;;;1.50;1.40;;;17.80;99.90;;;;;;5061426;28;20287;-68
2023/03/11 07:56:02;;;;;;;1.40;1.30;;;18.00;99.90;;;;;;5063311;28;20302;-70
2023/03/11 07:58:30;;;;;;;1.10;1.10;;;18.30;99.90;;;;;;5050616;28;20203;-70
2023/03/11 08:01:03;;;;;;;1.10;1.00;;;18.50;99.90;;;;;;5054848;28;20249;-70
2023/03/11 08:03:30;;;;;;;1.13;1.10;;;18.70;99.90;;;;;;5049360;28;20206;-70
2023/03/11 08:05:57;;;;;;;1.15;1.08;;;18.80;99.90;;;;;;5058888;28;20227;-70
2023/03/11 08:08:25;;;;;;;1.55;1.45;;;19.10;98.50;;;;;;5053960;28;20221;-70
2023/03/11 08:10:53;;;;;;;1.80;1.70;;;18.90;99.90;;;;;;5056555;28;20297;-70
2023/03/11 08:13:20;;;;;;;1.52;1.42;;;19.00;99.90;;;;;;5056293;28;20275;-70
2023/03/11 08:15:47;;;;;;;0.95;0.95;;;19.30;99.90;;;;;;5060516;28;20230;-70
2023/03/11 08:18:14;;;;;;;0.98;0.98;;;19.40;97.60;;;;;;5056155;28;20202;-70
2023/03/11 08:20:44;;;;;;;0.98;0.98;;;19.50;96.70;;;;;;5062668;28;20871;-70
2023/03/11 08:23:11;;;;;;;0.90;0.90;;;19.60;95.20;;;;;;5058006;28;20707;-70
2023/03/11 08:25:39;;;;;;;1.85;0.90;;;19.30;95.00;;;;;;5061680;28;20289;-69
2023/03/11 08:28:08;;;;;;;1.10;1.10;;;19.20;93.70;;;;;;5058900;28;20285;-70
2023/03/11 08:30:36;;;;;;;1.05;0.93;;;19.00;93.10;;;;;;5060177;28;20281;-70
2023/03/11 08:33:03;;;;;;;1.20;1.10;;;18.80;93.20;;;;;;5059306;28;20710;-70
2023/03/11 08:35:31;;;;;;;2.42;1.10;;;18.70;93.50;;;;;;5058295;28;20306;-71
2023/03/11 08:37:58;;;;;;;1.88;1.00;;;18.80;93.10;;;;;;5059080;28;20289;-70
2023/03/11 08:40:25;;;;;;;1.77;1.25;;;19.00;93.10;;;;;;5061487;28;20285;-73
2023/03/11 08:42:52;;;;;;;1.75;1.00;;;18.80;93.10;;;;;;5067060;28;20222;-73
2023/03/11 08:45:21;;;;;;;1.00;1.00;;;18.70;92.80;;;;;;5061103;28;20297;-75
2023/03/11 08:47:48;;;;;;;1.00;1.00;;;19.00;92.80;;;;;;5058828;28;20282;-76
2023/03/11 08:50:17;;;;;;;0.95;0.95;;;19.50;92.20;;;;;;5058831;28;20286;-76
2023/03/11 08:52:44;;;;;;;1.00;1.00;;;20.00;91.90;;;;;;5072999;28;20325;-77
2023/03/11 08:55:16;;;;;;;0.90;0.90;;;20.70;91.30;;;;;;5059375;28;20230;-76
2023/03/11 08:57:43;;;;;;;1.00;1.00;;;21.20;90.20;;;;;;5062370;28;20205;-74
2023/03/11 09:00:12;;;;;;;1.10;1.00;;;21.10;88.70;;;;;;5057629;28;20301;-75
2023/03/11 09:02:42;;;;;;;0.95;0.95;;;21.10;85.90;;;;;;5059071;28;20284;-75
2023/03/11 09:05:10;;;;;;;0.75;0.75;;;20.80;86.00;;;;;;5059169;28;20229;-75
2023/03/11 09:07:37;;;;;;;0.80;0.80;;;20.40;84.70;;;;;;5059588;28;20294;-75
2023/03/11 09:10:04;;;;;;;0.93;0.90;;;20.50;85.90;;;;;;5064130;28;20253;-74
2023/03/11 09:12:31;;;;;;;0.90;0.90;;;20.70;82.60;;;;;;5064924;28;20312;-73
2023/03/11 09:14:58;;;;;;;0.73;0.70;;;20.60;80.80;;;;;;5063111;28;20298;-72
2023/03/11 09:17:26;;;;;;;1.75;0.90;;;20.20;80.40;;;;;;5060587;28;20759;-72
2023/03/11 09:19:54;;;;;;;0.90;0.90;;;20.30;82.60;;;;;;5065006;28;20264;-72
2023/03/11 09:22:21;;;;;;;0.70;0.70;;;20.40;80.80;;;;;;5056681;28;20344;-71
2023/03/11 09:24:49;;;;;;;0.82;0.82;;;20.30;80.20;;;;;;5061979;28;20280;-72
2023/03/11 09:27:16;;;;;;;0.80;0.80;;;20.70;78.90;;;;;;5062783;28;20575;-72
2023/03/11 09:29:43;;;;;;;0.60;0.60;;;20.90;75.60;;;;;;5062854;28;20199;-72
2023/03/11 09:32:13;;;;;;;0.93;0.55;;;20.70;78.60;;;;;;5059005;28;20772;-71
2023/03/11 09:34:40;;;;;;;0.80;0.80;;;20.60;76.70;;;;;;5065323;28;20281;-72
2023/03/11 09:37:09;;;;;;;1.55;0.90;;;20.60;76.00;;;;;;5064542;28;20628;-72
2023/03/11 09:39:36;;;;;;;1.15;0.80;;;20.60;77.50;;;;;;5059625;28;20206;-72
2023/03/11 09:42:17;;;;;;;0.60;0.60;;;20.70;77.00;;;;;;5056248;28;20246;-71
2023/03/11 09:44:47;;;;;;;5.18;0.50;;;20.70;73.10;;;;;;5060377;28;20256;-71
2023/03/11 09:47:38;;;;;;;0.50;0.50;;;20.90;72.00;;;;;;5063228;28;20747;-70
2023/03/11 09:50:26;;;;;;;0.60;0.60;;;20.80;66.40;;;;;;5063667;28;20795;-71
2023/03/11 09:53:03;;;;;;;0.50;0.50;;;20.00;67.80;;;;;;5061488;28;20218;-70
2023/03/11 09:55:36;;;;;;;0.50;0.50;;;19.70;71.00;;;;;;5057548;28;20212;-71
2023/03/11 09:58:10;;;;;;;0.60;0.60;;;19.50;70.90;;;;;;5061312;28;20199;-70
2023/03/11 10:00:37;;;;;;;0.60;0.60;;;19.40;69.70;;;;;;5060574;28;20245;-71
2023/03/11 10:03:11;;;;;;;0.50;0.50;;;19.20;69.50;;;;;;5064765;28;20253;-71
2023/03/11 10:05:39;;;;;;;0.60;0.60;;;19.40;69.10;;;;;;5060495;28;20623;-71
2023/03/11 10:08:16;;;;;;;0.50;0.50;;;19.50;68.00;;;;;;5062092;28;20208;-71
2023/03/11 10:10:49;;;;;;;0.50;0.50;;;19.60;70.30;;;;;;5056827;28;20194;-71
2023/03/11 10:13:24;;;;;;;2.25;0.70;;;19.70;68.90;;;;;;5063307;28;20286;-71
2023/03/11 10:15:58;;;;;;;0.68;0.68;;;20.10;66.40;;;;;;5063209;28;20202;-71
2023/03/11 10:18:37;;;;;;;0.60;0.60;;;20.60;68.90;;;;;;5060655;28;20300;-71
2023/03/11 10:21:11;;;;;;;3.47;0.70;;;20.90;66.20;;;;;;5053748;28;20276;-71
2023/03/11 10:23:55;;;;;;;2.72;1.00;;;20.90;65.70;;;;;;5054370;28;20678;-71
2023/03/11 10:26:27;;;;;;;0.60;0.60;;;21.10;63.90;;;;;;5056200;28;20239;-71
2023/03/11 10:29:00;;;;;;;0.70;0.70;;;21.20;64.50;;;;;;5043716;28;20210;-71
2023/03/11 10:31:31;;;;;;;0.60;0.60;;;21.40;63.60;;;;;;5060698;28;20267;-72
2023/03/11 10:34:02;;;;;;;0.57;0.57;;;21.60;63.60;;;;;;5061205;28;20285;-71
2023/03/11 10:36:35;;;;;;;1.50;0.60;;;21.80;63.30;;;;;;5057485;28;20195;-71
2023/03/11 10:39:06;;;;;;;0.80;0.80;;;21.90;63.20;;;;;;5055995;28;20256;-71
2023/03/11 10:41:43;;;;;;;0.60;0.60;;;22.00;62.40;;;;;;5058266;28;20771;-71
2023/03/11 10:44:15;;;;;;;0.50;0.50;;;22.10;61.40;;;;;;5056846;28;20214;-71
2023/03/11 10:46:42;;;;;;;0.40;0.40;;;22.10;61.20;;;;;;5057373;28;20194;-71
2023/03/11 10:49:15;;;;;;;0.57;0.57;;;22.10;59.80;;;;;;5061902;28;20640;-71
2023/03/11 10:51:45;;;;;;;0.60;0.60;;;22.00;58.60;;;;;;5061661;28;20225;-71
2023/03/11 10:54:24;;;;;;;0.50;0.50;;;21.50;58.30;;;;;;5058885;28;20250;-71
2023/03/11 10:56:55;;;;;;;0.50;0.50;;;21.30;58.20;;;;;;5063772;28;20269;-71
2023/03/11 10:59:26;;;;;;;0.95;0.60;;;21.10;56.70;;;;;;5060255;28;20208;-72
2023/03/11 11:01:55;;;;;;;0.85;0.60;;;21.20;61.20;;;;;;5059707;28;20242;-72
2023/03/11 11:04:37;;;;;;;0.70;0.70;;;21.50;60.70;;;;;;5058120;28;20800;-71
2023/03/11 11:07:29;;;;;;;1.10;0.60;;;21.70;58.10;;;;;;5061572;28;20285;-72
2023/03/11 11:10:17;;;;;;;0.50;0.50;;;21.30;55.60;;;;;;5059495;28;20293;-71
2023/03/11 11:12:55;;;;;;;0.70;0.70;;;21.20;59.10;;;;;;5062335;28;20222;-72
2023/03/11 11:15:25;;;;;;;1.10;0.70;;;21.50;57.50;;;;;;5057346;28;20679;-71
2023/03/11 11:17:55;;;;;;;0.77;0.70;;;21.20;57.20;;;;;;5058604;28;20195;-72
2023/03/11 11:20:23;;;;;;;1.60;0.70;;;20.80;57.70;;;;;;5060294;28;20218;-71
2023/03/11 11:22:53;;;;;;;2.33;0.50;;;20.90;58.00;;;;;;5058776;28;20815;-71
2023/03/11 11:25:37;;;;;;;0.50;0.50;;;20.70;58.20;;;;;;5058368;28;20285;-72
2023/03/11 11:28:16;;;;;;;1.85;0.52;;;20.60;57.00;;;;;;5054069;28;20201;-72
2023/03/11 11:30:53;;;;;;;0.50;0.50;;;20.60;56.70;;;;;;5060452;28;20212;-71
2023/03/11 11:33:24;;;;;;;0.50;0.50;;;20.50;58.10;;;;;;5063460;28;20683;-71
2023/03/11 11:35:54;;;;;;;2.35;0.50;;;20.50;57.30;;;;;;5061166;28;20217;-71
2023/03/11 11:38:24;;;;;;;0.68;0.68;;;20.50;56.20;;;;;;5055864;28;20234;-72
2023/03/11 11:40:54;;;;;;;0.50;0.50;;;20.50;57.40;;;;;;5059543;28;20301;-71
2023/03/11 11:43:32;;;;;;;1.08;0.60;;;20.20;57.20;;;;;;5053989;28;20283;-72
2023/03/11 11:46:04;;;;;;;0.50;0.50;;;20.30;57.30;;;;;;5059021;28;20535;-72
2023/03/11 11:48:40;;;;;;;0.73;0.52;;;20.40;56.30;;;;;;5058072;28;20314;-72
2023/03/11 11:51:16;;;;;;;0.60;0.60;;;20.50;56.30;;;;;;5062517;28;20229;-71
2023/03/11 11:53:48;;;;;;;0.50;0.50;;;20.70;56.50;;;;;;5060096;28;20245;-72
2023/03/11 11:56:17;;;;;;;0.50;0.50;;;20.80;56.00;;;;;;5053266;28;20234;-72
2023/03/11 11:58:44;;;;;;;0.57;0.57;;;20.90;55.80;;;;;;5053713;28;20283;-72
2023/03/11 12:01:16;;;;;;;0.50;0.50;;;20.90;55.80;;;;;;5060479;28;20258;-72
2023/03/11 12:04:26;;;;;;;0.50;0.50;;;21.00;56.60;;;;;;5056032;28;20203;-71
2023/03/11 12:07:04;;;;;;;0.55;0.50;;;21.30;55.60;;;;;;5051259;28;20675;-72
2023/03/11 12:09:40;;;;;;;0.63;0.63;;;21.20;54.20;;;;;;5053726;28;20302;-72
2023/03/11 12:12:19;;;;;;;0.50;0.50;;;21.10;55.40;;;;;;5056692;28;20605;-73
2023/03/11 12:14:53;;;;;;;1.52;0.50;;;20.90;54.80;;;;;;5055218;28;20230;-73
2023/03/11 12:17:22;;;;;;;1.40;0.55;;;20.80;57.00;;;;;;5058943;28;20656;-72
2023/03/11 12:19:55;;;;;;;0.40;0.40;;;21.10;57.70;;;;;;5055435;28;20202;-73
2023/03/11 12:22:54;;;;;;;0.65;0.65;;;21.30;57.10;;;;;;5061413;28;20681;-73
2023/03/11 12:25:33;;;;;;;0.50;0.50;;;21.00;55.30;;;;;;5061143;28;20226;-73
2023/03/11 12:28:14;;;;;;;1.38;0.70;;;20.50;56.20;;;;;;5057565;28;20231;-72
2023/03/11 12:30:44;;;;;;;0.40;0.40;;;20.80;56.30;;;;;;5057301;28;20195;-72
2023/03/11 12:33:17;;;;;;;2.10;0.52;;;21.00;57.80;;;;;;5053791;28;20630;-72
2023/03/11 12:35:50;;;;;;;0.50;0.50;;;21.20;57.30;;;;;;5055447;28;20748;-73
2023/03/11 12:38:21;;;;;;;3.22;0.63;;;21.40;56.70;;;;;;5059477;28;20210;-72
2023/03/11 12:41:00;;;;;;;0.60;0.60;;;21.40;57.30;;;;;;5061998;28;20210;-73
2023/03/11 12:44:10;;;;;;;0.60;0.60;;;21.30;55.40;;;;;;5053531;28;20198;-72
2023/03/11 12:47:10;;;;;;;0.70;0.63;;;21.30;57.50;;;;;;5063309;28;20207;-72
2023/03/11 12:49:40;;;;;;;0.50;0.50;;;21.40;55.30;;;;;;5063047;28;20647;-73
2023/03/11 12:52:20;;;;;;;0.50;0.50;;;21.00;54.70;;;;;;5067723;28;20299;-72
2023/03/11 12:54:49;;;;;;;0.40;0.40;;;20.70;55.00;;;;;;5063859;28;20205;-72
2023/03/11 12:57:35;;;;;;;0.68;0.68;;;20.70;56.40;;;;;;5064910;28;20634;-72
2023/03/11 13:00:37;;;;;;;0.60;0.60;;;20.70;54.50;;;;;;5063561;28;20301;-72
2023/03/11 13:03:35;;;;;;;0.50;0.50;;;20.40;54.30;;;;;;5051111;28;20291;-72
2023/03/11 13:06:21;;;;;;;0.60;0.60;;;20.60;56.90;;;;;;5061440;28;20284;-73
2023/03/11 13:08:50;;;;;;;0.60;0.60;;;20.50;54.70;;;;;;5062026;28;20267;-73